createdAt,value
2022-08-05T00:00:18.918Z,4.13
2022-08-05T00:02:51.089Z,3.67
2022-08-05T00:06:03.253Z,4.15
2022-08-05T00:08:34.157Z,4.00
2022-08-05T00:11:00.923Z,4.70
2022-08-05T00:13:39.620Z,3.53
2022-08-05T00:16:12.656Z,4.43
2022-08-05T00:18:44.512Z,4.15
2022-08-05T00:21:14.711Z,3.80
2022-08-05T00:24:05.063Z,3.97
2022-08-05T00:26:33.837Z,4.03
2022-08-05T00:29:01.069Z,4.15
2022-08-05T00:31:52.943Z,4.15
2022-08-05T00:34:56.930Z,3.70
2022-08-05T00:37:09.902Z,4.07
2022-08-05T00:39:58.765Z,4.30
2022-08-05T00:42:40.031Z,4.10
2022-08-05T00:45:11.739Z,4.75
2022-08-05T00:47:57.002Z,4.50
2022-08-05T00:50:25.841Z,4.80
2022-08-05T00:52:55.046Z,5.10
2022-08-05T00:55:34.047Z,5.78
2022-08-05T00:58:14.201Z,6.43
2022-08-05T01:00:42.043Z,5.88
2022-08-05T01:03:12.688Z,5.53
2022-08-05T01:05:54.582Z,5.70
2022-08-05T01:08:41.598Z,6.50
2022-08-05T01:11:21.793Z,5.88
2022-08-05T01:14:08.627Z,6.28
2022-08-05T01:17:07.631Z,6.35
2022-08-05T01:20:02.000Z,6.85
2022-08-05T01:23:00.605Z,6.60
2022-08-05T01:26:26.224Z,6.60
2022-08-05T01:29:13.745Z,7.18
2022-08-05T01:31:58.894Z,6.57
2022-08-05T01:34:35.898Z,7.25
2022-08-05T01:37:24.575Z,7.35
2022-08-05T01:39:59.215Z,7.25
2022-08-05T01:42:31.399Z,7.32
2022-08-05T01:45:02.438Z,6.72
2022-08-05T01:47:38.808Z,7.10
2022-08-05T01:50:18.734Z,8.00
2022-08-05T01:53:05.377Z,7.88
2022-08-05T01:55:37.450Z,7.97
2022-08-05T01:58:15.754Z,6.80
2022-08-05T02:00:50.952Z,7.40
2022-08-05T02:03:41.029Z,7.68
2022-08-05T02:06:33.407Z,7.72
2022-08-05T02:08:59.267Z,6.25
2022-08-05T02:11:37.567Z,7.45
2022-08-05T02:14:17.439Z,7.70
2022-08-05T02:16:52.168Z,7.03
2022-08-05T02:19:46.960Z,6.88
2022-08-05T02:22:31.652Z,7.38
2022-08-05T02:25:08.670Z,6.60
2022-08-05T02:27:58.378Z,6.60
2022-08-05T02:30:38.231Z,6.80
2022-08-05T02:33:24.325Z,6.78
2022-08-05T02:35:59.094Z,6.45
2022-08-05T02:38:35.080Z,7.63
2022-08-05T02:41:28.370Z,7.15
2022-08-05T02:44:06.054Z,7.15
2022-08-05T02:46:53.102Z,7.40
2022-08-05T02:49:37.079Z,7.30
2022-08-05T02:52:30.077Z,7.65
2022-08-05T02:55:05.369Z,7.45
2022-08-05T02:58:10.567Z,7.95
2022-08-05T03:00:23.085Z,7.25
2022-08-05T03:02:54.788Z,8.82
2022-08-05T03:06:54.300Z,7.70
2022-08-05T03:08:12.345Z,8.88
2022-08-05T03:11:00.927Z,8.73
2022-08-05T03:13:51.987Z,9.50
2022-08-05T03:16:21.212Z,8.25
2022-08-05T03:18:49.419Z,8.63
2022-08-05T03:21:16.770Z,8.20
2022-08-05T03:23:45.607Z,7.88
2022-08-05T03:26:31.059Z,8.25
2022-08-05T03:29:01.621Z,8.68
2022-08-05T03:31:55.598Z,8.82
2022-08-05T03:34:18.075Z,8.25
2022-08-05T03:36:45.929Z,8.25
2022-08-05T03:39:20.080Z,8.13
2022-08-05T03:41:56.287Z,6.85
2022-08-05T03:44:25.330Z,6.95
2022-08-05T03:46:56.513Z,6.82
2022-08-05T03:49:24.220Z,7.53
2022-08-05T03:52:50.587Z,6.70
2022-08-05T03:56:05.556Z,6.53
2022-08-05T03:57:53.171Z,6.53
2022-08-05T04:00:26.633Z,6.25
2022-08-05T04:02:59.218Z,6.32
2022-08-05T04:05:33.394Z,6.03
2022-08-05T04:08:14.560Z,6.28
2022-08-05T04:10:45.243Z,6.15
2022-08-05T04:13:13.326Z,6.32
2022-08-05T04:16:03.373Z,7.40
2022-08-05T04:18:30.125Z,7.05
2022-08-05T04:20:59.116Z,7.30
2022-08-05T04:24:05.977Z,7.78
2022-08-05T04:26:17.448Z,6.75
2022-08-05T04:28:51.108Z,7.25
2022-08-05T04:31:20.401Z,7.45
2022-08-05T04:34:19.158Z,6.90
2022-08-05T04:36:46.590Z,6.82
2022-08-05T04:39:21.700Z,5.70
2022-08-05T04:41:51.006Z,5.50
2022-08-05T04:44:29.020Z,6.60
2022-08-05T04:47:09.789Z,6.60
2022-08-05T04:50:01.381Z,6.43
2022-08-05T04:52:27.362Z,6.22
2022-08-05T04:54:57.298Z,6.53
2022-08-05T04:57:28.667Z,6.20
2022-08-05T04:59:58.523Z,6.68
2022-08-05T05:02:41.277Z,6.88
2022-08-05T05:05:26.642Z,6.50
2022-08-05T05:08:14.465Z,7.03
2022-08-05T05:10:59.087Z,6.93
2022-08-05T05:13:32.289Z,7.00
2022-08-05T05:16:10.944Z,6.65
2022-08-05T05:18:38.922Z,7.88
2022-08-05T05:21:06.406Z,6.38
2022-08-05T05:24:02.044Z,6.80
2022-08-05T05:26:28.753Z,6.45
2022-08-05T05:29:00.700Z,6.15
2022-08-05T05:31:35.998Z,6.22
2022-08-05T05:34:02.167Z,6.10
2022-08-05T05:36:31.993Z,5.82
2022-08-05T05:38:59.427Z,6.80
2022-08-05T05:41:40.425Z,6.10
2022-08-05T05:44:34.469Z,6.57
2022-08-05T05:46:58.056Z,6.82
2022-08-05T05:49:26.165Z,6.25
2022-08-05T05:51:54.926Z,6.75
2022-08-05T05:54:22.268Z,5.95
2022-08-05T05:57:13.515Z,6.40
2022-08-05T05:59:41.348Z,6.00
2022-08-05T06:02:10.707Z,6.30
2022-08-05T06:04:38.153Z,5.35
2022-08-05T06:07:05.256Z,5.15
2022-08-05T06:09:50.231Z,4.70
2022-08-05T06:12:19.884Z,5.22
2022-08-05T06:14:48.889Z,4.22
2022-08-05T06:17:22.419Z,4.78
2022-08-05T06:19:57.103Z,4.05
2022-08-05T06:22:35.093Z,3.88
2022-08-05T06:25:25.028Z,4.93
2022-08-05T06:28:11.136Z,3.75
2022-08-05T06:30:38.769Z,4.07
2022-08-05T06:33:09.981Z,5.47
2022-08-05T06:36:06.812Z,5.00
2022-08-05T06:38:35.811Z,5.57
2022-08-05T06:41:07.657Z,5.68
2022-08-05T06:43:58.163Z,6.47
2022-08-05T06:46:23.037Z,5.97
2022-08-05T06:48:59.279Z,5.90
2022-08-05T06:51:31.034Z,6.53
2022-08-05T06:54:04.273Z,6.43
2022-08-05T06:56:34.397Z,6.15
2022-08-05T06:59:09.639Z,5.32
2022-08-05T07:01:40.769Z,4.32
2022-08-05T07:04:09.795Z,4.10
2022-08-05T07:06:37.205Z,4.10
2022-08-05T07:09:05.022Z,4.30
2022-08-05T07:11:37.053Z,4.38
2022-08-05T07:14:30.099Z,4.63
2022-08-05T07:18:01.835Z,4.43
2022-08-05T07:22:39.690Z,4.05
2022-08-05T07:25:22.493Z,3.85
2022-08-05T07:28:03.767Z,4.15
2022-08-05T07:30:38.840Z,3.53
2022-08-05T07:33:15.543Z,3.47
2022-08-05T07:36:04.265Z,3.17
2022-08-05T07:38:43.307Z,3.67
2022-08-05T07:42:13.615Z,3.50
2022-08-05T07:44:14.033Z,3.67
2022-08-05T07:46:49.749Z,3.75
2022-08-05T07:49:19.006Z,3.63
2022-08-05T07:51:53.734Z,3.55
2022-08-05T07:54:30.749Z,3.58
2022-08-05T07:57:23.666Z,3.65
2022-08-05T07:59:51.807Z,3.67
2022-08-05T08:02:26.677Z,4.80
2022-08-05T08:04:59.440Z,3.40
2022-08-05T08:07:29.218Z,4.18
2022-08-05T08:10:07.421Z,3.85
2022-08-05T08:12:49.236Z,3.42
2022-08-05T08:15:17.291Z,4.53
2022-08-05T08:17:49.914Z,4.78
2022-08-05T08:21:00.547Z,4.40
2022-08-05T08:23:11.814Z,4.28
2022-08-05T08:26:02.892Z,4.18
2022-08-05T08:28:35.600Z,4.85
2022-08-05T08:31:09.555Z,4.28
2022-08-05T08:33:51.717Z,4.63
2022-08-05T08:36:39.284Z,4.53
2022-08-05T08:39:14.962Z,4.63
2022-08-05T08:41:51.361Z,4.80
2022-08-05T08:45:19.799Z,4.63
2022-08-05T08:48:05.860Z,4.90
2022-08-05T08:50:30.873Z,4.60
2022-08-05T08:53:12.011Z,4.53
2022-08-05T08:56:04.560Z,4.35
2022-08-05T08:58:37.198Z,4.43
2022-08-05T09:01:18.283Z,4.25
2022-08-05T09:03:54.517Z,3.67
2022-08-05T09:06:27.965Z,3.70
2022-08-05T09:09:01.129Z,3.88
2022-08-05T09:11:52.037Z,3.85
2022-08-05T09:14:56.854Z,3.90
2022-08-05T09:17:40.052Z,3.30
2022-08-05T09:20:02.468Z,3.47
2022-08-05T09:23:19.431Z,3.75
2022-08-05T09:26:01.997Z,4.60
2022-08-05T09:28:34.944Z,5.07
2022-08-05T09:31:43.863Z,5.47
2022-08-05T09:34:10.345Z,3.83
2022-08-05T09:36:56.100Z,3.78
2022-08-05T09:39:45.863Z,3.83
2022-08-05T09:42:24.557Z,3.80
2022-08-05T09:45:03.304Z,4.03
2022-08-05T09:47:55.640Z,3.88
2022-08-05T09:50:44.510Z,5.05
2022-08-05T09:53:23.185Z,4.55
2022-08-05T09:56:04.020Z,5.50
2022-08-05T09:58:32.912Z,5.63
2022-08-05T10:01:15.437Z,5.03
2022-08-05T10:04:17.541Z,5.53
2022-08-05T10:06:59.639Z,5.53
2022-08-05T10:09:29.829Z,5.55
2022-08-05T10:12:18.797Z,4.50
2022-08-05T10:15:21.795Z,4.38
2022-08-05T10:18:17.426Z,4.93
2022-08-05T10:20:48.757Z,4.47
2022-08-05T10:23:55.550Z,4.97
2022-08-05T10:26:14.986Z,4.63
2022-08-05T10:28:46.415Z,4.82
2022-08-05T10:32:47.177Z,5.43
2022-08-05T10:34:03.957Z,5.05
2022-08-05T10:36:38.273Z,5.18
2022-08-05T10:40:03.097Z,5.20
2022-08-05T10:42:33.413Z,4.68
2022-08-05T10:45:20.932Z,4.60
2022-08-05T10:48:29.865Z,4.53
2022-08-05T10:50:59.658Z,5.00
2022-08-05T10:53:58.583Z,5.70
2022-08-05T10:56:55.983Z,5.15
2022-08-05T11:00:03.437Z,4.95
2022-08-05T11:02:37.948Z,4.43
2022-08-05T11:05:10.641Z,5.53
2022-08-05T11:08:01.733Z,4.60
2022-08-05T11:11:00.042Z,4.65
2022-08-05T11:13:54.956Z,4.25
2022-08-05T11:16:33.736Z,5.05
2022-08-05T11:20:11.121Z,4.47
2022-08-05T11:22:49.800Z,4.15
2022-08-05T11:26:06.222Z,5.00
2022-08-05T11:28:26.857Z,4.32
2022-08-05T11:31:06.585Z,4.00
2022-08-05T11:33:52.309Z,4.60
2022-08-05T11:36:42.032Z,4.00
2022-08-05T11:39:14.676Z,4.10
2022-08-05T11:42:01.092Z,3.72
2022-08-05T11:44:53.891Z,4.25
2022-08-05T11:47:48.777Z,3.92
2022-08-05T11:50:14.304Z,4.07
2022-08-05T11:52:44.018Z,3.67
2022-08-05T11:55:16.467Z,3.78
2022-08-05T11:58:10.061Z,3.55
2022-08-05T12:00:38.446Z,3.90
2022-08-05T12:03:29.651Z,4.25
2022-08-05T12:06:03.260Z,3.53
2022-08-05T12:08:33.797Z,3.25
2022-08-05T12:11:05.658Z,3.33
2022-08-05T12:13:48.770Z,3.70
2022-08-05T12:16:25.705Z,2.67
2022-08-05T12:18:55.777Z,3.05
2022-08-05T12:21:39.119Z,3.45
2022-08-05T12:24:11.252Z,2.97
2022-08-05T12:26:46.517Z,2.92
2022-08-05T12:29:22.998Z,2.10
2022-08-05T12:31:54.677Z,2.17
2022-08-05T12:34:32.749Z,2.13
2022-08-05T12:37:10.693Z,2.60
2022-08-05T12:39:39.893Z,2.63
2022-08-05T12:42:16.054Z,2.83
2022-08-05T12:44:46.003Z,2.60
2022-08-05T12:47:31.020Z,2.47
2022-08-05T12:50:04.782Z,3.08
2022-08-05T12:52:42.448Z,2.72
2022-08-05T12:55:22.075Z,2.22
2022-08-05T12:58:48.634Z,2.25
2022-08-05T13:02:04.164Z,2.30
2022-08-05T13:03:41.354Z,2.13
2022-08-05T13:06:17.719Z,2.10
2022-08-05T13:08:52.283Z,2.10
2022-08-05T13:12:03.134Z,2.88
2022-08-05T13:14:36.677Z,2.08
2022-08-05T13:17:16.448Z,2.67
2022-08-05T13:20:11.491Z,1.85
2022-08-05T13:22:43.363Z,1.88
2022-08-05T13:25:19.231Z,1.45
2022-08-05T13:27:56.168Z,1.50
2022-08-05T13:30:34.254Z,1.55
2022-08-05T13:33:02.617Z,1.40
2022-08-05T13:35:42.957Z,1.17
2022-08-05T13:38:28.160Z,1.30
2022-08-05T13:41:00.520Z,1.40
2022-08-05T13:43:43.962Z,1.35
2022-08-05T13:46:16.185Z,1.10
2022-08-05T13:48:58.389Z,1.73
2022-08-05T13:51:40.193Z,1.25
2022-08-05T13:54:13.676Z,1.63
2022-08-05T13:56:51.656Z,1.50
2022-08-05T13:59:24.840Z,1.35
2022-08-05T14:01:57.968Z,1.80
2022-08-05T14:04:55.616Z,1.50
2022-08-05T14:08:00.907Z,1.60
2022-08-05T14:10:28.696Z,1.75
2022-08-05T14:12:59.755Z,1.38
2022-08-05T14:16:07.758Z,1.30
2022-08-05T14:18:18.291Z,1.38
2022-08-05T14:20:54.419Z,1.73
2022-08-05T14:23:26.047Z,1.38
2022-08-05T14:25:58.490Z,2.17
2022-08-05T14:28:28.806Z,2.47
2022-08-05T14:30:58.300Z,2.45
2022-08-05T14:33:25.872Z,2.17
2022-08-05T14:35:54.504Z,2.22
2022-08-05T14:38:32.788Z,2.40
2022-08-05T14:41:07.640Z,1.92
2022-08-05T14:44:02.107Z,1.88
2022-08-05T14:46:28.741Z,1.95
2022-08-05T14:49:06.235Z,1.90
2022-08-05T14:51:39.010Z,1.60
2022-08-05T14:54:28.255Z,1.98
2022-08-05T14:56:59.492Z,1.80
2022-08-05T14:59:29.364Z,1.55
2022-08-05T15:01:58.323Z,1.63
2022-08-05T15:04:28.983Z,1.98
2022-08-05T15:06:56.630Z,1.60
2022-08-05T15:09:52.750Z,1.52
2022-08-05T15:12:16.714Z,1.30
2022-08-05T15:14:50.274Z,1.33
2022-08-05T15:17:47.303Z,1.50
2022-08-05T15:20:15.537Z,1.52
2022-08-05T15:22:54.410Z,1.65
2022-08-05T15:25:41.103Z,1.58
2022-08-05T15:28:15.644Z,1.90
2022-08-05T15:30:46.238Z,1.70
2022-08-05T15:33:56.734Z,1.33
2022-08-05T15:36:06.070Z,1.30
2022-08-05T15:38:44.806Z,1.40
2022-08-05T15:41:21.998Z,1.27
2022-08-05T15:43:54.901Z,1.40
2022-08-05T15:46:24.465Z,1.40
2022-08-05T15:48:58.750Z,1.27
2022-08-05T15:52:13.717Z,1.20
2022-08-05T15:54:17.577Z,1.20
2022-08-05T15:56:44.738Z,1.30
2022-08-05T15:59:21.774Z,2.15
2022-08-05T16:01:52.526Z,1.33
2022-08-05T16:04:25.655Z,1.65
2022-08-05T16:06:55.607Z,1.58
2022-08-05T16:09:25.197Z,1.60
2022-08-05T16:11:54.166Z,1.30
2022-08-05T16:14:22.974Z,1.20
2022-08-05T16:16:50.596Z,1.20
2022-08-05T16:19:25.270Z,1.17
2022-08-05T16:22:10.459Z,1.48
2022-08-05T16:24:41.145Z,1.17
2022-08-05T16:27:18.470Z,1.25
2022-08-05T16:29:50.752Z,1.25
2022-08-05T16:32:23.386Z,1.30
2022-08-05T16:34:55.738Z,0.95
2022-08-05T16:38:15.172Z,1.20
2022-08-05T16:40:24.717Z,1.38
2022-08-05T16:42:53.952Z,1.30
2022-08-05T16:46:05.101Z,0.82
2022-08-05T16:48:10.377Z,1.02
2022-08-05T16:50:37.901Z,1.00
2022-08-05T16:53:12.583Z,1.38
2022-08-05T16:55:49.897Z,1.08
2022-08-05T16:58:19.753Z,1.05
2022-08-05T17:00:48.210Z,1.27
2022-08-05T17:03:20.548Z,1.08
2022-08-05T17:05:53.717Z,1.20
2022-08-05T17:08:36.176Z,1.30
2022-08-05T17:11:12.759Z,1.13
2022-08-05T17:13:46.249Z,1.80
2022-08-05T17:16:33.667Z,1.15
2022-08-05T17:19:01.517Z,1.45
2022-08-05T17:21:36.217Z,1.15
2022-08-05T17:24:30.327Z,0.93
2022-08-05T17:26:58.201Z,0.95
2022-08-05T17:29:33.268Z,1.00
2022-08-05T17:32:11.346Z,0.90
2022-08-05T17:34:47.918Z,0.90
2022-08-05T17:37:39.755Z,0.82
2022-08-05T17:40:12.276Z,1.02
2022-08-05T17:42:51.369Z,0.80
2022-08-05T17:45:24.877Z,1.00
2022-08-05T17:47:55.975Z,1.10
2022-08-05T17:50:30.319Z,1.15
2022-08-05T17:53:05.378Z,1.33
2022-08-05T17:55:37.768Z,1.00
2022-08-05T17:58:13.637Z,0.88
2022-08-05T18:00:47.732Z,0.95
2022-08-05T18:06:12.286Z,1.20
2022-08-05T18:08:45.796Z,1.35
2022-08-05T18:11:24.165Z,1.05
2022-08-05T18:14:03.379Z,1.30
2022-08-05T18:16:32.647Z,1.20
2022-08-05T18:19:00.719Z,1.27
2022-08-05T18:22:07.850Z,1.20
2022-08-05T18:24:16.055Z,1.08
2022-08-05T18:26:43.800Z,1.13
2022-08-05T18:29:11.654Z,1.25
2022-08-05T18:31:42.900Z,1.48
2022-08-05T18:34:12.638Z,2.33
2022-08-05T18:36:41.267Z,1.48
2022-08-05T18:39:42.293Z,1.42
2022-08-05T18:42:06.367Z,1.52
2022-08-05T18:44:49.209Z,1.52
2022-08-05T18:47:26.469Z,1.20
2022-08-05T18:50:15.421Z,1.40
2022-08-05T18:52:50.887Z,1.50
2022-08-05T18:55:21.492Z,1.48
2022-08-05T18:57:52.756Z,1.67
2022-08-05T19:00:28.432Z,1.92
2022-08-05T19:03:03.976Z,1.58
2022-08-05T19:06:12.226Z,1.52
2022-08-05T19:08:20.183Z,1.73
2022-08-05T19:10:50.186Z,1.65
2022-08-05T19:13:19.757Z,1.65
2022-08-05T19:15:59.109Z,1.58
2022-08-05T19:18:30.890Z,1.60
2022-08-05T19:20:59.668Z,1.45
2022-08-05T19:24:07.210Z,1.70
2022-08-05T19:26:16.524Z,1.88
2022-08-05T19:28:44.051Z,1.52
2022-08-05T19:31:15.034Z,1.70
2022-08-05T19:33:48.435Z,1.83
2022-08-05T19:36:25.213Z,1.92
2022-08-05T19:38:55.169Z,2.20
2022-08-05T19:41:58.278Z,2.38
2022-08-05T19:44:18.810Z,2.13
2022-08-05T19:46:47.030Z,2.00
2022-08-05T19:49:24.932Z,2.42
2022-08-05T19:52:05.040Z,2.10
2022-08-05T19:54:37.250Z,2.10
2022-08-05T19:57:09.270Z,2.15
2022-08-05T19:59:56.225Z,2.20
2022-08-05T20:02:30.364Z,1.92
2022-08-05T20:04:59.823Z,1.70
2022-08-05T20:07:46.887Z,2.28
2022-08-05T20:10:19.380Z,2.10
2022-08-05T20:12:49.589Z,2.15
2022-08-05T20:15:48.972Z,2.40
2022-08-05T20:18:10.723Z,1.60
2022-08-05T20:20:57.051Z,1.98
2022-08-05T20:23:39.431Z,2.10
2022-08-05T20:26:15.944Z,1.85
2022-08-05T20:28:50.360Z,1.75
2022-08-05T20:31:21.567Z,1.58
2022-08-05T20:33:51.211Z,1.40
2022-08-05T20:36:19.850Z,1.50
2022-08-05T20:38:53.779Z,1.40
2022-08-05T20:41:43.859Z,1.55
2022-08-05T20:44:17.102Z,1.20
2022-08-05T20:46:48.093Z,1.00
2022-08-05T20:49:18.442Z,1.60
2022-08-05T20:51:53.669Z,1.30
2022-08-05T20:54:25.890Z,1.15
2022-08-05T20:57:11.177Z,1.48
2022-08-05T20:59:46.219Z,1.30
2022-08-05T21:02:29.664Z,1.30
2022-08-05T21:04:56.804Z,1.38
2022-08-05T21:07:24.814Z,1.15
2022-08-05T21:10:13.845Z,1.53
2022-08-05T21:12:41.123Z,1.20
2022-08-05T21:15:25.865Z,1.73
2022-08-05T21:18:02.247Z,1.20
2022-08-05T21:20:32.817Z,1.60
2022-08-05T21:23:01.494Z,1.27
2022-08-05T21:25:33.922Z,1.48
2022-08-05T21:28:03.235Z,1.30
2022-08-05T21:30:31.659Z,1.43
2022-08-05T21:32:59.750Z,1.63
2022-08-05T21:35:55.428Z,1.40
2022-08-05T21:38:18.996Z,1.43
2022-08-05T21:40:46.153Z,1.53
2022-08-05T21:43:24.339Z,1.20
2022-08-05T21:45:57.390Z,1.10
2022-08-05T21:48:25.245Z,1.07
2022-08-05T21:50:54.521Z,1.10
2022-08-05T21:53:27.286Z,1.10
2022-08-05T21:56:05.517Z,0.93
2022-08-05T21:58:42.117Z,1.37
2022-08-05T22:01:10.653Z,1.00
2022-08-05T22:03:52.494Z,1.23
2022-08-05T22:06:33.550Z,1.08
2022-08-05T22:09:15.145Z,1.00
2022-08-05T22:11:48.038Z,1.00
2022-08-05T22:14:34.343Z,0.90
2022-08-05T22:17:07.194Z,0.87
2022-08-05T22:20:01.888Z,1.20
2022-08-05T22:22:27.945Z,1.27
2022-08-05T22:25:18.049Z,0.83
2022-08-05T22:28:11.130Z,1.00
2022-08-05T22:30:44.250Z,1.00
2022-08-05T22:33:55.716Z,0.97
2022-08-05T22:36:15.160Z,1.10
2022-08-05T22:38:48.185Z,1.00
2022-08-05T22:41:26.369Z,0.87
2022-08-05T22:44:07.931Z,0.97
2022-08-05T22:46:39.750Z,0.80
2022-08-05T22:49:12.494Z,0.80
2022-08-05T22:52:05.693Z,1.00
2022-08-05T22:54:36.581Z,0.70
2022-08-05T22:57:06.035Z,1.00
2022-08-05T22:59:48.596Z,0.93
2022-08-05T23:02:29.765Z,0.60
2022-08-05T23:05:01.879Z,0.70
2022-08-05T23:07:45.203Z,0.57
2022-08-05T23:10:20.274Z,0.70
2022-08-05T23:12:51.215Z,0.80
2022-08-05T23:15:18.851Z,0.80
2022-08-05T23:18:00.409Z,0.93
2022-08-05T23:20:37.056Z,0.73
2022-08-05T23:23:08.405Z,0.80
2022-08-05T23:25:53.470Z,0.80
2022-08-05T23:28:28.699Z,1.10
2022-08-05T23:31:03.731Z,1.00
2022-08-05T23:34:03.048Z,0.93
2022-08-05T23:36:38.525Z,0.80
2022-08-05T23:39:07.806Z,0.70
2022-08-05T23:41:40.957Z,0.90
2022-08-05T23:44:16.697Z,0.80
2022-08-05T23:46:44.280Z,1.00
2022-08-05T23:49:16.506Z,0.80
2022-08-05T23:52:03.280Z,1.07
2022-08-05T23:54:38.047Z,0.90
2022-08-05T23:57:07.688Z,0.80
